M I D A S
Marine Information and Data Acquisition System
Tripno 1996 of the Zeeleeuw from 2010-10-27 06:16:02 to 2010-10-27 14:40:10
Back to CruiseResearch ActivitiesStationsMapUnderway DataData graphs

EquipmentUnitsComment
TimeDGPSUTC
LatitudeDGPSDM.mWGS84
LongitudeDGPSDM.mWGS84
HeadingGyrodeg 
SOGDGPSknotsSpeed over ground
COGDGPSdegCourse over ground
DepthEcho soundermeters200 kHz
Missing or incorrect values are displayed as -999
Navigation data collected by the RV Zeeleeuw from 2010-10-27 06:10:07 to 2010-10-27 14:46:31
Time Latitude Longitude Heading SOG COG Depth
2010-10-27 06:11:10 51°13.664 2°55.962 124.5 -999 238 8.4
2010-10-27 06:12:08 51°13.663 2°55.961 124.2 -999 172 8.3
2010-10-27 06:13:08 51°13.663 2°55.961 123.5 0.1 353 8.3
2010-10-27 06:14:08 51°13.665 2°55.96 123.4 0.1 344 8.3
2010-10-27 06:15:08 51°13.664 2°55.96 124.3 0.2 153 8.2
2010-10-27 06:16:08 51°13.664 2°55.961 127.2 0.1 336 8.3
2010-10-27 06:17:08 51°13.665 2°55.96 127.2 0.1 333 8.3
2010-10-27 06:18:08 51°13.663 2°55.96 127.2 0.1 131 8.2
2010-10-27 06:19:08 51°13.663 2°55.96 127.4 -999 103 8.3
2010-10-27 06:20:08 51°13.662 2°55.961 124.2 0.1 154 8.4
2010-10-27 06:21:08 51°13.662 2°55.96 113.7 0.1 191 8.2
2010-10-27 06:22:08 51°13.662 2°55.952 108.9 1.4 294 8.2
2010-10-27 06:23:12 51°13.685 2°55.877 109 3.7 294 -999
2010-10-27 06:24:12 51°13.699 2°55.786 85 3.3 272 -999
2010-10-27 06:25:12 51°13.696 2°55.733 58.9 0.6 17 -999
2010-10-27 06:26:10 51°13.715 2°55.745 11.6 0.4 191 13.4
2010-10-27 06:27:11 51°13.725 2°55.736 334.6 3.2 335 13.1
2010-10-27 06:28:10 51°13.804 2°55.661 330.5 7.2 331 12
2010-10-27 06:29:08 51°13.924 2°55.567 335.1 9 335 11
2010-10-27 06:30:10 51°14.073 2°55.462 337.1 9.7 337 -999
2010-10-27 06:31:11 51°14.229 2°55.349 332.8 10.5 330 10.4
2010-10-27 06:32:12 51°14.387 2°55.19 328.5 11.7 329 -999
2010-10-27 06:33:11 51°14.554 2°55.017 326.3 12.6 323 11.3
2010-10-27 06:34:09 51°14.724 2°54.809 325.1 13.7 322 -999
2010-10-27 06:35:11 51°14.911 2°54.589 324.9 13.5 325 -999
2010-10-27 06:36:10 51°15.087 2°54.384 323.8 13.4 325 10.2
2010-10-27 06:37:07 51°15.261 2°54.186 323.7 13.6 323 10.2
2010-10-27 06:38:08 51°15.442 2°53.966 321.6 13.5 321 10.9
2010-10-27 06:39:08 51°15.616 2°53.745 322.8 13.4 322 11.5
2010-10-27 06:40:08 51°15.791 2°53.527 323.5 13.3 323 11.6
2010-10-27 06:41:08 51°15.98 2°53.339 330.2 13.3 330 11.3
2010-10-27 06:42:08 51°16.174 2°53.166 334.3 13.4 334 11.9
2010-10-27 06:43:08 51°16.376 2°53.013 334.8 13.4 335 11.8
2010-10-27 06:44:08 51°16.579 2°52.862 334.5 13.4 334 11.6
2010-10-27 06:45:08 51°16.78 2°52.712 334.7 13.3 334 9.5
2010-10-27 06:46:08 51°16.98 2°52.559 334.6 13.4 336 9.7
2010-10-27 06:47:08 51°17.182 2°52.406 334.1 13.4 336 10.2
2010-10-27 06:48:08 51°17.383 2°52.252 334.2 13.4 336 11.1
2010-10-27 06:49:08 51°17.583 2°52.093 334.1 13.5 332 11.3
2010-10-27 06:50:08 51°17.781 2°51.937 334 13.2 336 10
2010-10-27 06:51:08 51°17.982 2°51.784 334.9 13.5 335 10.6
2010-10-27 06:52:08 51°18.183 2°51.629 333.8 13.3 333 11.3
2010-10-27 06:53:08 51°18.383 2°51.473 334.7 13.4 335 12.9
2010-10-27 06:54:08 51°18.584 2°51.315 333.7 13.5 333 13.5
2010-10-27 06:55:08 51°18.786 2°51.156 334 13.4 334 14.4
2010-10-27 06:56:08 51°18.983 2°50.996 334 13.3 332 14.4
2010-10-27 06:57:08 51°19.184 2°50.836 334.3 13.5 333 14
2010-10-27 06:58:08 51°19.383 2°50.679 334.6 13.3 334 12.9
2010-10-27 06:59:08 51°19.584 2°50.522 335 13.4 335 11.7
2010-10-27 07:00:08 51°19.786 2°50.357 334.2 13.7 329 13.5
2010-10-27 07:01:08 51°19.987 2°50.196 334.8 13.5 333 14.5
2010-10-27 07:02:08 51°20.187 2°50.033 333.5 13.5 333 17.7
2010-10-27 07:03:08 51°20.388 2°49.872 334.2 13.6 335 20.8
2010-10-27 07:04:08 51°20.584 2°49.701 321.5 12.8 315 22.6
2010-10-27 07:05:08 51°20.679 2°49.391 288.7 13.4 290 22.7
2010-10-27 07:06:08 51°20.757 2°49.056 288.5 13.5 290 22.5
2010-10-27 07:07:08 51°20.842 2°48.724 294.2 13.5 299 21.5
2010-10-27 07:08:08 51°20.985 2°48.45 315.3 13.5 315 19.9
2010-10-27 07:09:08 51°21.148 2°48.203 317.7 13.5 317 20.1
2010-10-27 07:10:08 51°21.31 2°47.952 316.5 13.6 314 20.5
2010-10-27 07:11:08 51°21.469 2°47.698 314.5 13.4 314 23.3
2010-10-27 07:12:08 51°21.622 2°47.438 311.5 13.4 312 23.3
2010-10-27 07:13:08 51°21.767 2°47.165 310.6 13.6 310 23.7
2010-10-27 07:14:08 51°21.909 2°46.888 310 13.4 311 23.9
2010-10-27 07:15:08 51°22.055 2°46.616 310.7 13.7 311 22.2
2010-10-27 07:16:08 51°22.198 2°46.339 309.6 13.6 310 19.6
2010-10-27 07:17:08 51°22.343 2°46.063 309.3 13.6 307 19.9
2010-10-27 07:18:08 51°22.503 2°45.813 319 13.4 316 22.6
2010-10-27 07:19:08 51°22.678 2°45.591 325.6 13.4 327 22.5
2010-10-27 07:20:08 51°22.863 2°45.388 326.7 13.7 324 25.2
2010-10-27 07:21:08 51°23.051 2°45.194 327.4 13.5 327 25.5
2010-10-27 07:22:08 51°23.235 2°44.994 327.8 13.5 322 26.3
2010-10-27 07:23:08 51°23.42 2°44.799 331.1 13.3 328 25.6
2010-10-27 07:24:08 51°23.615 2°44.622 332.3 13.2 333 26.2
2010-10-27 07:25:08 51°23.807 2°44.433 329.3 13.5 328 27.3
2010-10-27 07:26:08 51°23.994 2°44.241 328.7 13.3 328 26.3
2010-10-27 07:27:08 51°24.184 2°44.057 334 13.3 332 25.3
2010-10-27 07:28:08 51°24.368 2°43.918 337.7 11.2 336 26.4
2010-10-27 07:29:08 51°24.508 2°43.806 325.9 6.6 326 20.8
2010-10-27 07:30:08 51°24.571 2°43.726 321.8 4.1 326 22.9
2010-10-27 07:31:08 51°24.631 2°43.696 357.3 3.6 -999 21.2
2010-10-27 07:32:08 51°24.674 2°43.701 357 1.1 2 22.9
2010-10-27 07:33:08 51°24.678 2°43.707 346.4 0.4 92 23.5
2010-10-27 07:34:11 51°24.676 2°43.711 5.1 0.4 42 -999
2010-10-27 07:35:11 51°24.687 2°43.711 9 0.8 8 23.3
2010-10-27 07:36:09 51°24.698 2°43.711 357.5 0.6 34 23.7
2010-10-27 07:37:07 51°24.712 2°43.709 338.6 1.2 354 23.3
2010-10-27 07:38:08 51°24.732 2°43.701 320.9 1.4 344 22.9
2010-10-27 07:39:08 51°24.777 2°43.672 350.8 4.3 354 22.9
2010-10-27 07:40:08 51°24.83 2°43.75 88.3 4.3 89 23.5
2010-10-27 07:41:08 51°24.792 2°43.824 160 3.8 166 22.1
2010-10-27 07:42:08 51°24.739 2°43.802 201.6 2.8 205 24.4
2010-10-27 07:43:08 51°24.715 2°43.766 218.3 1.6 244 19.5
2010-10-27 07:44:08 51°24.695 2°43.738 180.4 1.1 193 23
2010-10-27 07:45:08 51°24.678 2°43.734 185.7 1.2 193 21.7
2010-10-27 07:46:08 51°24.67 2°43.726 198.7 0.7 250 22.8
2010-10-27 07:47:08 51°24.664 2°43.713 204.8 0.5 248 23.7
2010-10-27 07:48:10 51°24.678 2°43.711 225.1 1.1 6 -999
2010-10-27 07:49:08 51°24.698 2°43.722 259.7 1.2 28 23.1
2010-10-27 07:50:08 51°24.711 2°43.737 293.1 0.8 45 22
2010-10-27 07:51:08 51°24.714 2°43.755 316.5 1.4 107 20.6
2010-10-27 07:52:08 51°24.731 2°43.715 281.6 3.2 287 22.3
2010-10-27 07:53:10 51°24.746 2°43.703 280.4 2.1 298 -999
2010-10-27 07:54:09 51°24.73 2°43.617 214 3.5 222 20.4
2010-10-27 07:55:08 51°24.687 2°43.629 134.6 2.7 127 21.9
2010-10-27 07:56:08 51°24.662 2°43.676 147 1.4 124 20.5
2010-10-27 07:57:08 51°24.664 2°43.686 127.6 0.7 89 19.3
2010-10-27 07:58:08 51°24.668 2°43.701 122 0.8 76 21.6
2010-10-27 07:59:08 51°24.673 2°43.709 126.9 0.6 11 20
2010-10-27 08:00:08 51°24.686 2°43.711 106.4 0.8 348 23.2
2010-10-27 08:01:08 51°24.698 2°43.71 99.9 0.8 3 22.6
2010-10-27 08:02:08 51°24.71 2°43.713 102.4 0.7 11 22.9
2010-10-27 08:03:08 51°24.705 2°43.742 135.6 2.7 139 22
2010-10-27 08:04:08 51°24.657 2°43.751 190.9 2 199 23.7
2010-10-27 08:05:10 51°24.654 2°43.742 208.8 0.5 354 -999
2010-10-27 08:06:11 51°24.658 2°43.729 223.7 1 268 24.2
2010-10-27 08:07:09 51°24.667 2°43.713 241.8 0.9 342 22.3
2010-10-27 08:08:08 51°24.681 2°43.715 280.3 0.7 24 22.9
2010-10-27 08:09:08 51°24.689 2°43.72 299.1 0.5 31 23.3
2010-10-27 08:10:08 51°24.697 2°43.724 311.4 0.4 4 22.8
2010-10-27 08:11:08 51°24.705 2°43.727 315.9 0.4 352 22.6
2010-10-27 08:12:08 51°24.714 2°43.724 311.2 0.6 333 22.2
2010-10-27 08:13:08 51°24.725 2°43.715 299.8 1.7 309 22.1
2010-10-27 08:14:08 51°24.732 2°43.637 245.1 3.8 253 20.4
2010-10-27 08:15:08 51°24.687 2°43.589 166 3.5 172 22.6
2010-10-27 08:16:08 51°24.634 2°43.647 142.1 2.2 146 23.4
2010-10-27 08:17:08 51°24.629 2°43.658 146.4 0.2 2 23.6
2010-10-27 08:18:08 51°24.635 2°43.663 116.5 0.3 50 23.1
2010-10-27 08:19:08 51°24.64 2°43.672 106.7 0.5 52 22.3
2010-10-27 08:20:08 51°24.645 2°43.679 113.2 0.4 21 21.7
2010-10-27 08:21:08 51°24.648 2°43.684 120.8 0.3 42 21.2
2010-10-27 08:22:08 51°24.651 2°43.69 117.7 0.3 74 20.1
2010-10-27 08:23:08 51°24.655 2°43.692 119 0.3 25 21.1
2010-10-27 08:24:08 51°24.658 2°43.699 117.9 0.5 87 23
2010-10-27 08:25:08 51°24.66 2°43.705 115.1 0.2 354 23.4
2010-10-27 08:26:08 51°24.666 2°43.706 114.2 0.4 11 22.5
2010-10-27 08:27:08 51°24.673 2°43.707 110.4 0.8 355 19.7
2010-10-27 08:28:08 51°24.68 2°43.707 109 0.4 14 23.2
2010-10-27 08:29:08 51°24.687 2°43.705 110.9 0.1 322 22.9
2010-10-27 08:30:08 51°24.694 2°43.704 108.8 0.4 342 23.4
2010-10-27 08:31:08 51°24.7 2°43.704 114.1 0.4 341 23.3
2010-10-27 08:32:08 51°24.705 2°43.714 109.7 1.1 95 23.4
2010-10-27 08:33:08 51°24.707 2°43.765 70.5 2.7 62 19.8
2010-10-27 08:34:08 51°24.775 2°43.849 36.3 8.3 36 21.1
2010-10-27 08:35:08 51°24.919 2°44.01 37.5 11.8 31 17.6
2010-10-27 08:36:08 51°25.083 2°44.205 35.8 12.4 35 20.9
2010-10-27 08:37:08 51°25.254 2°44.4 34.2 12.7 32 23.3
2010-10-27 08:38:08 51°25.423 2°44.584 35.7 12.2 37 21.2
2010-10-27 08:39:08 51°25.589 2°44.783 37.1 13 36 23.5
2010-10-27 08:40:08 51°25.753 2°44.984 35.4 12.4 31 24.8
2010-10-27 08:41:08 51°25.919 2°45.187 40.1 13 39 24.8
2010-10-27 08:42:08 51°26.072 2°45.413 43 12.3 45 25.5
2010-10-27 08:43:08 51°26.221 2°45.64 41.8 12.5 42 25.6
2010-10-27 08:44:08 51°26.372 2°45.86 38.7 12.1 33 24.7
2010-10-27 08:45:08 51°26.529 2°46.058 39.3 12.2 42 26.5
2010-10-27 08:46:08 51°26.679 2°46.273 41.6 12.2 43 29.6
2010-10-27 08:47:08 51°26.83 2°46.479 41.5 12.3 40 28.4
2010-10-27 08:48:08 51°26.981 2°46.691 41 12 36 28.3
2010-10-27 08:49:08 51°27.136 2°46.902 41 12 41 28.3
2010-10-27 08:50:08 51°27.289 2°47.117 41.2 12.5 42 28
2010-10-27 08:51:08 51°27.436 2°47.335 42.9 12 42 27.6
2010-10-27 08:52:08 51°27.59 2°47.532 39.6 12 42 28.1
2010-10-27 08:53:08 51°27.747 2°47.728 42.7 12 42 26.8
2010-10-27 08:54:08 51°27.903 2°47.927 39.9 12.3 35 27.4
2010-10-27 08:55:08 51°28.059 2°48.13 40.4 11.8 42 29.5
2010-10-27 08:56:08 51°28.214 2°48.34 38 12.4 34 27
2010-10-27 08:57:08 51°28.364 2°48.553 42.9 12.5 32 25.7
2010-10-27 08:58:08 51°28.514 2°48.764 44.4 11.7 37 30.5
2010-10-27 08:59:08 51°28.669 2°48.969 42.4 12.2 36 29.1
2010-10-27 09:00:08 51°28.825 2°49.169 39.8 11.8 35 27.6
2010-10-27 09:01:08 51°28.985 2°49.373 43.3 12.4 46 26.3
2010-10-27 09:02:08 51°29.14 2°49.566 38.8 11.9 42 27.1
2010-10-27 09:03:08 51°29.294 2°49.768 44.6 11.7 43 28.5
2010-10-27 09:04:08 51°29.44 2°49.983 40.8 11.7 43 29.2
2010-10-27 09:05:08 51°29.593 2°50.198 48.3 12.1 51 29.5
2010-10-27 09:06:08 51°29.635 2°50.497 94.3 11.8 103 30.4
2010-10-27 09:07:08 51°29.553 2°50.795 112.5 12.4 119 30.5
2010-10-27 09:08:08 51°29.455 2°51.083 112.1 12.3 113 28
2010-10-27 09:09:08 51°29.352 2°51.363 120.5 12.4 124 27.4
2010-10-27 09:10:08 51°29.243 2°51.642 116 12.2 117 29.4
2010-10-27 09:11:08 51°29.135 2°51.921 119.1 12.3 119 30.3
2010-10-27 09:12:08 51°29.021 2°52.197 120.6 12.1 120 28.9
2010-10-27 09:13:08 51°28.915 2°52.476 117.7 11.9 124 29
2010-10-27 09:14:08 51°28.804 2°52.753 118 12.3 129 25.6
2010-10-27 09:15:08 51°28.687 2°53.024 121.3 12.5 124 25.1
2010-10-27 09:16:08 51°28.572 2°53.299 121 12.2 124 24
2010-10-27 09:17:08 51°28.455 2°53.557 118.9 9.4 127 22
2010-10-27 09:18:08 51°28.388 2°53.677 131.9 4 139 21.6
2010-10-27 09:19:08 51°28.353 2°53.72 131.9 1.8 152 21
2010-10-27 09:20:08 51°28.332 2°53.737 136.7 1.1 156 21
2010-10-27 09:21:08 51°28.319 2°53.743 134.4 0.6 163 20.9
2010-10-27 09:22:08 51°28.314 2°53.745 130.5 0.1 90 21.7
2010-10-27 09:23:08 51°28.311 2°53.743 124.5 0.1 35 22.3
2010-10-27 09:24:08 51°28.31 2°53.74 118.3 0.3 218 22.3
2010-10-27 09:25:08 51°28.308 2°53.738 116.9 0.3 181 22
2010-10-27 09:26:08 51°28.308 2°53.733 116.5 0.2 282 22.8
2010-10-27 09:27:08 51°28.306 2°53.731 114.3 0.2 222 22.4
2010-10-27 09:28:08 51°28.304 2°53.726 114.9 0.2 252 22.2
2010-10-27 09:29:08 51°28.302 2°53.726 112.8 0.2 162 21.7
2010-10-27 09:30:08 51°28.299 2°53.725 118.5 0.2 190 22
2010-10-27 09:31:08 51°28.297 2°53.722 118.8 0.3 197 22
2010-10-27 09:32:08 51°28.294 2°53.72 122 0.3 208 21.4
2010-10-27 09:33:08 51°28.291 2°53.718 120.6 0.3 217 21.4
2010-10-27 09:34:08 51°28.287 2°53.716 119.1 0.2 221 21.1
2010-10-27 09:35:08 51°28.284 2°53.712 116.2 0.3 223 21.2
2010-10-27 09:36:08 51°28.282 2°53.708 113.3 0.2 282 21.9
2010-10-27 09:37:08 51°28.279 2°53.705 113.4 0.2 213 21.2
2010-10-27 09:38:08 51°28.276 2°53.703 112.9 0.3 191 21.6
2010-10-27 09:39:08 51°28.27 2°53.7 113.1 0.6 192 21.1
2010-10-27 09:40:08 51°28.266 2°53.701 113.2 0.7 115 22
2010-10-27 09:41:08 51°28.249 2°53.742 98.5 2.7 109 21.3
2010-10-27 09:42:08 51°28.256 2°53.826 55.3 3.7 57 20.7
2010-10-27 09:43:08 51°28.319 2°53.854 358.2 5.1 353 22.1
2010-10-27 09:44:08 51°28.441 2°53.798 347.2 9.4 341 22.2
2010-10-27 09:45:08 51°28.615 2°53.712 348.2 11.7 342 23.6
2010-10-27 09:46:08 51°28.806 2°53.629 348.9 12.1 347 25.4
2010-10-27 09:47:08 51°28.996 2°53.538 347 12 345 26.9
2010-10-27 09:48:08 51°29.191 2°53.445 345.6 12.3 338 28.3
2010-10-27 09:49:08 51°29.377 2°53.331 344.7 12 338 29.7
2010-10-27 09:50:08 51°29.57 2°53.273 356.9 11.8 351 31.1
2010-10-27 09:51:08 51°29.764 2°53.243 358.6 11.7 351 31.7
2010-10-27 09:52:08 51°29.961 2°53.213 354.6 11.9 350 29.8
2010-10-27 09:53:08 51°30.159 2°53.178 358.3 12.1 353 29.7
2010-10-27 09:54:08 51°30.359 2°53.142 353.7 12.2 354 28.6
2010-10-27 09:55:08 51°30.56 2°53.126 1.1 12.3 2 25.5
2010-10-27 09:56:08 51°30.757 2°53.097 356.5 11.4 347 18
2010-10-27 09:57:08 51°30.944 2°53.056 349.1 10.8 342 16.2
2010-10-27 09:58:08 51°31.084 2°52.95 330.1 7.8 324 18.6
2010-10-27 09:59:08 51°31.168 2°52.848 329.6 5.4 322 19.7
2010-10-27 10:00:08 51°31.219 2°52.736 292.3 5.4 282 21
2010-10-27 10:01:08 51°31.223 2°52.6 277.1 4.9 270 18.7
2010-10-27 10:02:07 51°31.231 2°52.501 282.3 2.4 271 18.3
2010-10-27 10:03:08 51°31.229 2°52.493 302.9 0.5 109 20.1
2010-10-27 10:04:08 51°31.219 2°52.496 322.3 0.5 173 20.9
2010-10-27 10:05:08 51°31.212 2°52.496 326.6 0.4 207 20.6
2010-10-27 10:06:08 51°31.209 2°52.489 318 0.4 252 20.9
2010-10-27 10:07:08 51°31.207 2°52.479 307.5 0.2 275 21.4
2010-10-27 10:08:08 51°31.206 2°52.472 305.5 0.4 244 21.5
2010-10-27 10:09:08 51°31.205 2°52.466 307.6 0.1 236 21.5
2010-10-27 10:10:08 51°31.203 2°52.464 316 0.2 197 21.7
2010-10-27 10:11:08 51°31.203 2°52.46 319.8 0.5 344 21.1
2010-10-27 10:12:08 51°31.204 2°52.45 313.5 0.4 305 21.3
2010-10-27 10:13:08 51°31.206 2°52.441 318 0.4 322 21.9
2010-10-27 10:14:08 51°31.211 2°52.433 327.9 0.5 348 21.6
2010-10-27 10:15:08 51°31.216 2°52.425 338.3 0.5 338 21.2
2010-10-27 10:16:08 51°31.222 2°52.422 346.3 0.3 4 21.4
2010-10-27 10:17:08 51°31.228 2°52.42 352.9 0.5 359 21.8
2010-10-27 10:18:08 51°31.236 2°52.421 0.7 0.6 359 20
2010-10-27 10:19:08 51°31.243 2°52.425 12.3 0.6 -999 18.4
2010-10-27 10:20:08 51°31.249 2°52.431 22.1 0.5 42 20
2010-10-27 10:21:08 51°31.255 2°52.443 41.4 0.5 67 20.7
2010-10-27 10:22:08 51°31.255 2°52.457 64.7 0.5 118 21.1
2010-10-27 10:23:08 51°31.251 2°52.466 81.6 0.4 163 20.9
2010-10-27 10:24:08 51°31.243 2°52.47 98.4 0.5 196 20.1
2010-10-27 10:25:08 51°31.234 2°52.47 110.9 0.3 163 18.9
2010-10-27 10:26:08 51°31.229 2°52.465 116.7 0.3 249 20.8
2010-10-27 10:27:08 51°31.227 2°52.458 107.1 0.5 241 20.8
2010-10-27 10:28:08 51°31.225 2°52.449 95.2 0.3 226 21
2010-10-27 10:29:08 51°31.223 2°52.448 95.3 0.3 159 20.9
2010-10-27 10:30:08 51°31.218 2°52.453 101 0.3 123 21.8
2010-10-27 10:31:08 51°31.212 2°52.457 107.8 0.3 169 21.2
2010-10-27 10:32:08 51°31.208 2°52.458 106.5 0.2 144 21.9
2010-10-27 10:33:08 51°31.205 2°52.458 100.8 0.3 184 21.8
2010-10-27 10:34:08 51°31.203 2°52.459 101.2 0.3 173 21.9
2010-10-27 10:35:08 51°31.201 2°52.461 98.8 0.1 54 22.1
2010-10-27 10:36:08 51°31.2 2°52.469 95.3 0.3 101 21.9
2010-10-27 10:37:08 51°31.199 2°52.476 87.9 0.2 95 21.4
2010-10-27 10:38:08 51°31.199 2°52.481 85.7 0.1 140 22
2010-10-27 10:39:08 51°31.198 2°52.484 89.4 0.1 146 22
2010-10-27 10:40:08 51°31.199 2°52.483 88.2 0.2 109 21.4
2010-10-27 10:41:08 51°31.198 2°52.48 90.8 0.2 331 21.8
2010-10-27 10:42:08 51°31.198 2°52.479 89 0.1 356 21.5
2010-10-27 10:43:08 51°31.197 2°52.476 89.6 0.2 255 21.9
2010-10-27 10:44:08 51°31.197 2°52.476 92.6 0.2 296 22.4
2010-10-27 10:45:08 51°31.198 2°52.477 91.4 0.3 357 21.7
2010-10-27 10:46:08 51°31.197 2°52.477 90.8 0.1 334 21.9
2010-10-27 10:47:08 51°31.198 2°52.475 91.6 0.1 92 21.7
2010-10-27 10:48:08 51°31.199 2°52.477 99.5 0.4 31 21.7
2010-10-27 10:49:08 51°31.2 2°52.475 99 0.2 317 21.9
2010-10-27 10:50:08 51°31.2 2°52.471 98.4 0.1 18 22
2010-10-27 10:51:08 51°31.199 2°52.471 100.9 0.1 164 22.3
2010-10-27 10:52:08 51°31.199 2°52.469 99.3 0.1 230 22
2010-10-27 10:53:08 51°31.198 2°52.47 98.3 0.3 88 21.1
2010-10-27 10:54:08 51°31.197 2°52.472 94.7 -999 128 22.1
2010-10-27 10:55:08 51°31.198 2°52.478 95.1 0.3 101 21.8
2010-10-27 10:56:08 51°31.198 2°52.48 91.7 0.1 35 21.7
2010-10-27 10:57:08 51°31.198 2°52.48 93.3 0.2 282 22.4
2010-10-27 10:58:08 51°31.199 2°52.479 93.9 0.2 287 21.8
2010-10-27 10:59:08 51°31.198 2°52.479 93 0.1 183 21.8
2010-10-27 11:00:08 51°31.198 2°52.48 91.9 0.2 131 21.7
2010-10-27 11:01:08 51°31.199 2°52.48 93.7 0.2 321 21.6
2010-10-27 11:02:08 51°31.198 2°52.479 94.1 0.1 132 21.5
2010-10-27 11:03:08 51°31.198 2°52.478 92.2 0.4 156 21.6
2010-10-27 11:04:08 51°31.198 2°52.477 94 0.2 173 21.9
2010-10-27 11:05:08 51°31.198 2°52.477 89.5 0.2 144 22
2010-10-27 11:06:08 51°31.197 2°52.479 90.6 0.2 155 21.5
2010-10-27 11:07:08 51°31.198 2°52.479 88.1 0.2 286 22.2
2010-10-27 11:08:08 51°31.198 2°52.48 89.1 0.1 310 22
2010-10-27 11:09:08 51°31.198 2°52.479 88.4 0.2 202 21.8
2010-10-27 11:10:08 51°31.198 2°52.481 88.6 0.2 339 21.8
2010-10-27 11:11:08 51°31.199 2°52.483 89.2 0.1 15 22.4
2010-10-27 11:12:08 51°31.199 2°52.482 86 0.2 265 22.5
2010-10-27 11:13:08 51°31.198 2°52.481 87.1 0.1 114 21.6
2010-10-27 11:14:08 51°31.198 2°52.48 88.7 0.2 255 21.9
2010-10-27 11:15:08 51°31.198 2°52.48 89.9 -999 167 21.9
2010-10-27 11:16:08 51°31.198 2°52.482 86.5 0.1 99 21.5
2010-10-27 11:17:08 51°31.199 2°52.486 86.9 0.1 10 22.1
2010-10-27 11:18:08 51°31.2 2°52.486 86.1 0.2 73 21.7
2010-10-27 11:19:08 51°31.2 2°52.484 89.4 0.1 10 22.1
2010-10-27 11:20:08 51°31.2 2°52.485 92.8 0.3 159 22.2
2010-10-27 11:21:08 51°31.2 2°52.482 90.5 -999 224 22.9
2010-10-27 11:22:08 51°31.2 2°52.483 93.7 0.1 241 22.3
2010-10-27 11:23:08 51°31.2 2°52.484 95.4 0.1 97 22.4
2010-10-27 11:24:08 51°31.201 2°52.482 92.6 0.6 300 22.6
2010-10-27 11:25:08 51°31.203 2°52.469 80.2 0.3 317 22.1
2010-10-27 11:26:08 51°31.207 2°52.464 69.2 0.3 31 22.2
2010-10-27 11:27:08 51°31.211 2°52.474 75.6 0.6 80 21.3
2010-10-27 11:28:08 51°31.213 2°52.489 73.3 0.7 97 21.6
2010-10-27 11:29:08 51°31.211 2°52.504 94.9 0.8 140 21.6
2010-10-27 11:30:08 51°31.204 2°52.512 112.9 0.4 136 21.9
2010-10-27 11:31:08 51°31.198 2°52.52 118.9 0.6 144 21.4
2010-10-27 11:32:08 51°31.186 2°52.55 102.2 1.8 109 21.6
2010-10-27 11:33:08 51°31.192 2°52.629 58.9 4.4 66 21.5
2010-10-27 11:34:08 51°31.263 2°52.754 38 8.3 39 21.7
2010-10-27 11:35:08 51°31.405 2°52.899 31.9 11.1 38 21.4
2010-10-27 11:36:08 51°31.513 2°53.16 58.3 12.4 63 22.6
2010-10-27 11:37:08 51°31.62 2°53.43 53.7 11.7 58 21.1
2010-10-27 11:38:08 51°31.73 2°53.696 56.8 12.3 58 21
2010-10-27 11:39:08 51°31.85 2°53.962 53.1 13.1 57 20
2010-10-27 11:40:08 51°31.96 2°54.236 53.1 12 59 20.5
2010-10-27 11:41:08 51°32.074 2°54.498 54.1 11.7 57 23.1
2010-10-27 11:42:08 51°32.201 2°54.739 42.3 11.3 44 22.2
2010-10-27 11:43:08 51°32.363 2°54.919 29.6 12 29 23.6
2010-10-27 11:44:08 51°32.492 2°55.056 31.9 6.8 44 -999
2010-10-27 11:45:07 51°32.51 2°55.159 82.8 2.9 97 22.8
2010-10-27 11:46:08 51°32.498 2°55.215 105.4 1.9 129 23.2
2010-10-27 11:47:08 51°32.485 2°55.245 116.9 1.1 128 23.5
2010-10-27 11:48:08 51°32.473 2°55.263 124.9 0.8 135 23.4
2010-10-27 11:49:08 51°32.465 2°55.281 124 1.6 126 23.1
2010-10-27 11:50:08 51°32.46 2°55.358 64 3.6 67 19.4
2010-10-27 11:51:08 51°32.514 2°55.4 7.7 4.4 16 23.8
2010-10-27 11:52:08 51°32.6 2°55.423 8.5 5.4 12 21.4
2010-10-27 11:53:08 51°32.662 2°55.472 49.3 3.2 57 23.7
2010-10-27 11:54:08 51°32.669 2°55.539 81.8 2.2 96 24.9
2010-10-27 11:55:08 51°32.662 2°55.579 102.3 1.3 107 26.8
2010-10-27 11:56:08 51°32.651 2°55.605 115.1 1.2 131 26.5
2010-10-27 11:57:08 51°32.644 2°55.623 122.2 0.6 100 26.6
2010-10-27 11:58:08 51°32.639 2°55.639 121.1 1.2 133 26.1
2010-10-27 11:59:08 51°32.613 2°55.679 151.6 2.3 146 24.6
2010-10-27 12:00:08 51°32.566 2°55.697 190.5 3.6 190 23.9
2010-10-27 12:01:08 51°32.533 2°55.633 273.9 3.1 271 24.2
2010-10-27 12:02:08 51°32.592 2°55.507 310.2 9.8 308 24.9
2010-10-27 12:03:08 51°32.731 2°55.285 321.7 12.3 322 24.5
2010-10-27 12:04:08 51°32.909 2°55.125 335.3 12.4 335 23.1
2010-10-27 12:05:08 51°33.094 2°55.13 22.2 11.4 34 24.6
2010-10-27 12:06:08 51°33.203 2°55.39 74.9 12.5 83 27
2010-10-27 12:07:08 51°33.146 2°55.659 115.4 7.8 120 26.5
2010-10-27 12:08:08 51°33.092 2°55.781 125.1 4.3 116 25.4
2010-10-27 12:09:08 51°33.061 2°55.849 122.9 2.4 125 24.9
2010-10-27 12:10:08 51°33.042 2°55.892 127.5 1.7 124 25.4
2010-10-27 12:11:08 51°33.029 2°55.92 130 1.1 115 25
2010-10-27 12:12:08 51°33.022 2°55.943 125.7 0.8 110 26
2010-10-27 12:13:08 51°33.019 2°55.963 119.5 0.7 96 26
2010-10-27 12:14:08 51°33.015 2°55.985 120.2 0.8 101 25.8
2010-10-27 12:15:08 51°33.012 2°56.004 119.8 0.8 77 26.1
2010-10-27 12:16:08 51°33.011 2°56.026 119.4 0.9 100 26.1
2010-10-27 12:17:08 51°33.006 2°56.049 119.9 0.8 99 26.7
2010-10-27 12:18:08 51°33.004 2°56.07 119.4 0.8 100 25.9
2010-10-27 12:19:08 51°33.004 2°56.089 114.3 0.7 97 26.5
2010-10-27 12:20:08 51°33.005 2°56.108 113.5 0.6 90 26.7
2010-10-27 12:21:08 51°33.006 2°56.125 111.2 0.8 93 26.9
2010-10-27 12:22:08 51°33.005 2°56.147 112.6 0.8 96 26.4
2010-10-27 12:23:08 51°33.003 2°56.169 116.3 0.9 107 23.7
2010-10-27 12:24:08 51°33.002 2°56.192 117 0.8 104 24.7
2010-10-27 12:25:08 51°33.002 2°56.211 117.8 0.7 79 25
2010-10-27 12:26:08 51°33.004 2°56.232 113.1 0.7 83 25.8
2010-10-27 12:27:08 51°33.006 2°56.252 109 1 82 25.8
2010-10-27 12:28:08 51°33.012 2°56.263 111.1 0.5 15 27.2
2010-10-27 12:29:10 51°33.021 2°56.254 94.8 0.7 291 26.8
2010-10-27 12:30:10 51°33.027 2°56.246 91.6 0.2 316 27.8
2010-10-27 12:31:08 51°33.032 2°56.23 80 0.6 283 26.5
2010-10-27 12:32:08 51°33.039 2°56.247 56.9 2.4 64 27.8
2010-10-27 12:33:08 51°33.086 2°56.284 344 3.9 5 27.5
2010-10-27 12:34:08 51°33.151 2°56.22 313.5 5 316 28.3
2010-10-27 12:35:08 51°33.192 2°56.106 289.2 4.7 293 27.9
2010-10-27 12:36:08 51°33.206 2°55.997 261.4 3 263 27.5
2010-10-27 12:37:08 51°33.183 2°55.932 234.6 3.5 229 25
2010-10-27 12:38:08 51°33.145 2°55.868 229.8 3.6 225 27.9
2010-10-27 12:39:08 51°33.085 2°55.855 176.4 4.3 166 26.7
2010-10-27 12:40:08 51°33.023 2°55.895 155.6 2.9 146 26
2010-10-27 12:41:08 51°33.022 2°55.926 132.5 1 56 26.7
2010-10-27 12:42:08 51°33.029 2°55.947 108.4 0.8 38 27.2
2010-10-27 12:43:08 51°33.037 2°55.962 91.8 0.9 51 26.9
2010-10-27 12:44:08 51°33.046 2°55.985 88.3 1 66 27.6
2010-10-27 12:45:08 51°33.052 2°56.012 98.8 1.1 81 27.5
2010-10-27 12:46:08 51°33.057 2°56.04 108.4 1.2 72 24.6
2010-10-27 12:47:08 51°33.059 2°56.082 114.5 1.5 99 25.5
2010-10-27 12:48:08 51°33.059 2°56.122 120.5 1.5 86 26.5
2010-10-27 12:49:08 51°33.063 2°56.158 119.1 1.7 74 27.1
2010-10-27 12:50:07 51°33.068 2°56.194 115.8 1.3 85 26.8
2010-10-27 12:51:07 51°33.073 2°56.231 121.5 1.6 73 26.6
2010-10-27 12:52:07 51°33.077 2°56.268 121.2 1.7 68 27
2010-10-27 12:53:07 51°33.083 2°56.307 119.2 1.7 71 27.4
2010-10-27 12:54:07 51°33.085 2°56.353 115.5 2.8 105 26.4
2010-10-27 12:55:07 51°33.062 2°56.456 117.7 5.5 111 27.3
2010-10-27 12:56:07 51°33.007 2°56.659 116.3 11 107 26.1
2010-10-27 12:57:07 51°32.898 2°56.922 132.6 12.7 132 22.5
2010-10-27 12:58:07 51°32.741 2°57.166 138.3 13.5 136 20.3
2010-10-27 12:59:07 51°32.57 2°57.396 146.7 13.3 145 18
2010-10-27 13:00:07 51°32.372 2°57.528 170.3 12.7 167 18.9
2010-10-27 13:01:08 51°32.16 2°57.565 179.3 12.4 178 18.1
2010-10-27 13:02:07 51°31.955 2°57.567 184.4 11.9 181 18.6
2010-10-27 13:03:07 51°31.752 2°57.532 190.8 12 190 32.8
2010-10-27 13:04:07 51°31.554 2°57.483 193.9 12.1 192 35.1
2010-10-27 13:05:07 51°31.357 2°57.416 194.9 12 192 34.7
2010-10-27 13:06:07 51°31.163 2°57.351 194.1 12 192 32.6
2010-10-27 13:07:07 51°30.969 2°57.296 191.7 11.6 187 32.9
2010-10-27 13:08:07 51°30.777 2°57.244 192.3 11.8 189 32.3
2010-10-27 13:09:07 51°30.584 2°57.194 192.5 11.8 191 31.4
2010-10-27 13:10:07 51°30.397 2°57.116 197.2 11.4 196 31.7
2010-10-27 13:11:07 51°30.212 2°57.032 198 11.7 195 30.3
2010-10-27 13:12:07 51°30.024 2°56.945 198.2 11.7 196 30.3
2010-10-27 13:13:07 51°29.836 2°56.864 197.3 11.7 194 29.7
2010-10-27 13:14:07 51°29.648 2°56.787 197.2 11.9 194 29.8
2010-10-27 13:15:07 51°29.459 2°56.706 197.2 11.9 195 27
2010-10-27 13:16:07 51°29.266 2°56.62 198 12.2 193 26.3
2010-10-27 13:17:08 51°29.076 2°56.545 196.5 11.4 193 24.9
2010-10-27 13:18:08 51°28.893 2°56.476 197.5 11.3 195 25.7
2010-10-27 13:19:07 51°28.707 2°56.399 198.2 12 198 26.1
2010-10-27 13:20:07 51°28.522 2°56.327 197.6 11.7 196 28.4
2010-10-27 13:21:08 51°28.333 2°56.251 195.7 11.3 193 28.8
2010-10-27 13:22:07 51°28.152 2°56.179 198.1 11.4 194 28
2010-10-27 13:23:07 51°27.97 2°56.101 198.2 11.5 193 30.2
2010-10-27 13:24:07 51°27.787 2°56.019 197.7 11.2 196 28.5
2010-10-27 13:25:07 51°27.603 2°55.943 197.1 11.1 196 31.4
2010-10-27 13:26:07 51°27.42 2°55.863 196.8 11.3 196 30.6
2010-10-27 13:27:07 51°27.235 2°55.781 197.4 11.4 196 30.7
2010-10-27 13:28:07 51°27.052 2°55.701 198 11.2 196 32.2
2010-10-27 13:29:07 51°26.871 2°55.625 197.7 11.4 195 30.1
2010-10-27 13:30:07 51°26.69 2°55.553 196.9 11.2 192 28.4
2010-10-27 13:31:07 51°26.508 2°55.478 198 11.4 197 27.9
2010-10-27 13:32:07 51°26.325 2°55.404 197.3 11.3 195 25
2010-10-27 13:33:07 51°26.143 2°55.331 197.5 11.4 194 24.6
2010-10-27 13:34:07 51°25.958 2°55.255 197.2 11.4 196 24.3
2010-10-27 13:35:07 51°25.772 2°55.181 197.8 11.6 193 22.2
2010-10-27 13:36:07 51°25.585 2°55.112 197.5 11.6 195 23.1
2010-10-27 13:37:07 51°25.4 2°55.038 197.6 11.6 194 22.2
2010-10-27 13:38:07 51°25.214 2°54.965 197.7 11.4 196 21.9
2010-10-27 13:39:07 51°25.029 2°54.893 197.4 11.5 193 22.5
2010-10-27 13:40:07 51°24.852 2°54.837 196.8 11.1 191 19.7
2010-10-27 13:41:07 51°24.671 2°54.769 197.7 11.2 196 22.4
2010-10-27 13:42:07 51°24.492 2°54.703 196.1 11.4 190 24.3
2010-10-27 13:43:07 51°24.309 2°54.633 198.1 11.1 192 24.8
2010-10-27 13:44:07 51°24.13 2°54.563 198.2 11.3 195 24.2
2010-10-27 13:45:07 51°23.95 2°54.493 197.5 11.4 193 23.6
2010-10-27 13:46:07 51°23.771 2°54.424 196.8 11.1 192 23.8
2010-10-27 13:47:07 51°23.591 2°54.353 197 11.1 193 23.8
2010-10-27 13:48:07 51°23.408 2°54.282 197.3 11.2 194 22.5
2010-10-27 13:49:07 51°23.225 2°54.211 197.6 11.2 193 23.1
2010-10-27 13:50:07 51°23.042 2°54.137 197.4 11.4 197 25.4
2010-10-27 13:51:07 51°22.858 2°54.067 197.5 11.4 194 24.6
2010-10-27 13:52:07 51°22.675 2°54 197.5 11.1 194 25.4
2010-10-27 13:53:07 51°22.491 2°53.931 197.5 11.2 194 25.4
2010-10-27 13:54:07 51°22.309 2°53.863 197.2 11.2 192 23.9
2010-10-27 13:55:07 51°22.124 2°53.796 198.2 11.3 192 22
2010-10-27 13:56:07 51°21.937 2°53.747 189.9 11.6 185 22
2010-10-27 13:57:07 51°21.743 2°53.73 187.5 11.8 181 20.7
2010-10-27 13:58:07 51°21.549 2°53.711 189.1 11.7 184 19.4
2010-10-27 13:59:07 51°21.355 2°53.687 189.7 11.7 186 19.7
2010-10-27 14:00:07 51°21.163 2°53.644 193.9 11.7 190 20
2010-10-27 14:01:07 51°20.972 2°53.586 194.4 11.6 189 19.6
2010-10-27 14:02:07 51°20.78 2°53.525 195.1 11.8 192 19.5
2010-10-27 14:03:07 51°20.589 2°53.474 193.4 11.5 188 19.2
2010-10-27 14:04:07 51°20.399 2°53.421 195.4 11.7 191 19.4
2010-10-27 14:05:07 51°20.209 2°53.366 194.3 11.5 189 18.7
2010-10-27 14:06:07 51°20.022 2°53.316 193.7 11.3 189 19.1
2010-10-27 14:07:07 51°19.837 2°53.261 198.2 11.2 196 18.2
2010-10-27 14:08:07 51°19.657 2°53.176 199.8 11.3 197 17.1
2010-10-27 14:09:07 51°19.477 2°53.088 200.3 11.4 199 16.9
2010-10-27 14:10:07 51°19.294 2°53.001 196.8 11.4 196 16.2
2010-10-27 14:11:07 51°19.109 2°52.925 196.8 11.4 195 15.8
2010-10-27 14:12:07 51°18.924 2°52.854 196.1 11.3 195 15.7
2010-10-27 14:13:07 51°18.74 2°52.781 196.9 11.3 193 14.8
2010-10-27 14:14:07 51°18.554 2°52.713 194.9 11.3 192 14.4
2010-10-27 14:15:07 51°18.37 2°52.638 196.8 11.5 194 14.2
2010-10-27 14:16:07 51°18.18 2°52.58 191.6 11.6 191 13.9
2010-10-27 14:17:07 51°17.988 2°52.544 187.3 11.7 184 14.2
2010-10-27 14:18:07 51°17.794 2°52.525 183.4 11.7 176 13.8
2010-10-27 14:19:07 51°17.597 2°52.548 178.2 12.1 175 13.5
2010-10-27 14:20:07 51°17.402 2°52.584 174.8 11.9 171 13.7
2010-10-27 14:21:07 51°17.208 2°52.669 170.3 11.9 164 12.9
2010-10-27 14:22:07 51°17.017 2°52.777 165.6 12.3 161 12.6
2010-10-27 14:23:07 51°16.824 2°52.88 164.6 12.1 160 12.5
2010-10-27 14:24:07 51°16.629 2°52.984 164.3 12.4 160 14.5
2010-10-27 14:25:07 51°16.441 2°53.121 162.1 12.3 155 14.7
2010-10-27 14:26:07 51°16.255 2°53.258 162.8 12.4 153 14.9
2010-10-27 14:27:07 51°16.069 2°53.4 162.1 12.5 153 15.1
2010-10-27 14:28:07 51°15.879 2°53.515 166.4 12.2 162 14.2
2010-10-27 14:29:07 51°15.693 2°53.663 152.3 12.5 148 14.5
2010-10-27 14:30:07 51°15.526 2°53.876 144.6 12.8 140 13.9
2010-10-27 14:31:07 51°15.363 2°54.098 143.8 12.8 140 13.1
2010-10-27 14:32:07 51°15.198 2°54.305 146.2 12.6 143 13.2
2010-10-27 14:33:07 51°15.03 2°54.503 144.7 12.9 143 13.2
2010-10-27 14:34:07 51°14.867 2°54.712 151.2 12.6 142 13.7
2010-10-27 14:35:07 51°14.694 2°54.893 151.8 12.6 146 14.6
2010-10-27 14:36:07 51°14.515 2°55.06 153.6 12.4 151 14.4
2010-10-27 14:37:07 51°14.344 2°55.224 146.4 11.7 148 13.3
2010-10-27 14:38:10 51°14.187 2°55.367 151.5 8.8 154 13.3
2010-10-27 14:39:10 51°14.069 2°55.455 154.2 7 155 13.1
2010-10-27 14:40:09 51°13.974 2°55.523 154.8 6.4 156 13.9
2010-10-27 14:41:07 51°13.878 2°55.593 154.1 6.8 156 14.1
2010-10-27 14:42:07 51°13.781 2°55.681 144.5 6.3 144 14.8
2010-10-27 14:43:07 51°13.722 2°55.783 124.4 4.7 126 15.6
2010-10-27 14:44:07 51°13.684 2°55.878 117.9 4 116 11.7
2010-10-27 14:45:07 51°13.664 2°55.956 119.3 1.4 121 11.2
2010-10-27 14:46:11 51°13.662 2°55.96 122.1 0.1 48 -999